Strang, Oklahoma
Current Conditions -  °F | °C
As of 9:35 AM on Saturday 20 Dec 2014 (Local Time) from KGCM Reporting Station
Scattered Clouds Scattered Clouds  
Wind Chill:   Ceiling: Unl
Heat Index:   Visibility: 7mi
Dew Point:   Wind: 3mph
Humidity: 81%   Direction: 90°E
Pressure: 30.28"   Gusts: NA
Location:  36.41°N, 95.13°W
Report Text: KGCM 201535Z AUTO 09003KT 7SM SCT027 04/01 A3028 RMK AO2
Loading
Personal Weather Stations






























Interactive Weather Map New forecast layout! Learn more

10-Day Weather Forecast

Advertisements
Track Severe Weather on mobile